sensor_id;sensor_type;location;lat;lon;timestamp;P1;durP1;ratioP1;P2;durP2;ratioP2
16892;SDS011;8563;52.242;9.098;2023-02-11T00:01:54;43.77;;;31.77;;
16892;SDS011;8563;52.242;9.098;2023-02-11T00:04:27;42.20;;;30.80;;
16892;SDS011;8563;52.242;9.098;2023-02-11T00:06:59;43.60;;;30.87;;
16892;SDS011;8563;52.242;9.098;2023-02-11T00:09:32;41.70;;;31.17;;
16892;SDS011;8563;52.242;9.098;2023-02-11T00:12:04;48.20;;;31.40;;
16892;SDS011;8563;52.242;9.098;2023-02-11T00:14:39;44.90;;;32.60;;
16892;SDS011;8563;52.242;9.098;2023-02-11T00:17:11;44.37;;;31.83;;
16892;SDS011;8563;52.242;9.098;2023-02-11T00:19:47;45.63;;;30.50;;
16892;SDS011;8563;52.242;9.098;2023-02-11T00:22:20;46.10;;;31.67;;
16892;SDS011;8563;52.242;9.098;2023-02-11T00:24:52;47.07;;;33.47;;
16892;SDS011;8563;52.242;9.098;2023-02-11T00:27:26;42.87;;;31.60;;
16892;SDS011;8563;52.242;9.098;2023-02-11T00:30:00;44.50;;;32.10;;
16892;SDS011;8563;52.242;9.098;2023-02-11T00:32:34;47.07;;;33.50;;
16892;SDS011;8563;52.242;9.098;2023-02-11T00:35:08;47.30;;;35.17;;
16892;SDS011;8563;52.242;9.098;2023-02-11T00:37:42;49.53;;;33.67;;
16892;SDS011;8563;52.242;9.098;2023-02-11T00:40:15;48.27;;;35.53;;
16892;SDS011;8563;52.242;9.098;2023-02-11T00:42:47;50.43;;;34.90;;
16892;SDS011;8563;52.242;9.098;2023-02-11T00:45:21;49.00;;;33.60;;
16892;SDS011;8563;52.242;9.098;2023-02-11T00:47:54;50.17;;;34.73;;
16892;SDS011;8563;52.242;9.098;2023-02-11T00:50:26;52.07;;;36.20;;
16892;SDS011;8563;52.242;9.098;2023-02-11T00:52:59;44.83;;;33.13;;
16892;SDS011;8563;52.242;9.098;2023-02-11T00:55:33;46.23;;;32.93;;
16892;SDS011;8563;52.242;9.098;2023-02-11T00:58:05;47.57;;;33.30;;
16892;SDS011;8563;52.242;9.098;2023-02-11T01:00:40;46.30;;;34.63;;
16892;SDS011;8563;52.242;9.098;2023-02-11T01:03:12;44.20;;;33.80;;
16892;SDS011;8563;52.242;9.098;2023-02-11T01:05:45;44.53;;;32.67;;
16892;SDS011;8563;52.242;9.098;2023-02-11T01:08:17;51.70;;;35.33;;
16892;SDS011;8563;52.242;9.098;2023-02-11T01:10:53;50.30;;;35.70;;
16892;SDS011;8563;52.242;9.098;2023-02-11T01:13:27;53.93;;;36.23;;
16892;SDS011;8563;52.242;9.098;2023-02-11T01:16:01;48.27;;;34.73;;
16892;SDS011;8563;52.242;9.098;2023-02-11T01:18:34;45.50;;;34.27;;
16892;SDS011;8563;52.242;9.098;2023-02-11T01:21:06;49.93;;;36.60;;
16892;SDS011;8563;52.242;9.098;2023-02-11T01:23:39;52.27;;;34.67;;
16892;SDS011;8563;52.242;9.098;2023-02-11T01:26:11;52.70;;;36.27;;
16892;SDS011;8563;52.242;9.098;2023-02-11T01:28:44;52.53;;;36.47;;
16892;SDS011;8563;52.242;9.098;2023-02-11T01:31:18;49.00;;;34.83;;
16892;SDS011;8563;52.242;9.098;2023-02-11T01:33:50;50.00;;;35.60;;
16892;SDS011;8563;52.242;9.098;2023-02-11T01:36:22;51.77;;;35.03;;
16892;SDS011;8563;52.242;9.098;2023-02-11T01:38:55;51.30;;;34.83;;
16892;SDS011;8563;52.242;9.098;2023-02-11T01:41:28;49.83;;;34.77;;
16892;SDS011;8563;52.242;9.098;2023-02-11T01:46:49;51.97;;;34.47;;
16892;SDS011;8563;52.242;9.098;2023-02-11T01:49:24;46.20;;;32.83;;
16892;SDS011;8563;52.242;9.098;2023-02-11T01:51:58;48.53;;;33.97;;
16892;SDS011;8563;52.242;9.098;2023-02-11T01:54:31;47.30;;;34.17;;
16892;SDS011;8563;52.242;9.098;2023-02-11T01:57:23;49.57;;;33.53;;
16892;SDS011;8563;52.242;9.098;2023-02-11T02:00:06;47.87;;;33.23;;
16892;SDS011;8563;52.242;9.098;2023-02-11T02:02:47;41.87;;;30.20;;
16892;SDS011;8563;52.242;9.098;2023-02-11T02:05:23;50.10;;;33.80;;
16892;SDS011;8563;52.242;9.098;2023-02-11T02:07:59;44.50;;;32.07;;
16892;SDS011;8563;52.242;9.098;2023-02-11T02:10:34;49.23;;;34.83;;
16892;SDS011;8563;52.242;9.098;2023-02-11T02:13:08;46.80;;;32.40;;
16892;SDS011;8563;52.242;9.098;2023-02-11T02:15:40;43.87;;;31.40;;
16892;SDS011;8563;52.242;9.098;2023-02-11T02:18:21;50.57;;;34.13;;
16892;SDS011;8563;52.242;9.098;2023-02-11T02:24:04;46.80;;;32.60;;
16892;SDS011;8563;52.242;9.098;2023-02-11T02:26:46;47.13;;;34.23;;
16892;SDS011;8563;52.242;9.098;2023-02-11T02:32:19;47.17;;;32.80;;
16892;SDS011;8563;52.242;9.098;2023-02-11T02:34:55;48.53;;;33.23;;
16892;SDS011;8563;52.242;9.098;2023-02-11T02:37:33;50.20;;;33.33;;
16892;SDS011;8563;52.242;9.098;2023-02-11T02:40:08;48.83;;;34.07;;
16892;SDS011;8563;52.242;9.098;2023-02-11T02:42:43;50.33;;;33.90;;
16892;SDS011;8563;52.242;9.098;2023-02-11T02:45:15;49.33;;;33.40;;
16892;SDS011;8563;52.242;9.098;2023-02-11T02:47:50;53.03;;;34.87;;
16892;SDS011;8563;52.242;9.098;2023-02-11T02:50:23;58.43;;;36.47;;
16892;SDS011;8563;52.242;9.098;2023-02-11T02:53:04;48.23;;;33.87;;
16892;SDS011;8563;52.242;9.098;2023-02-11T02:55:43;54.93;;;35.23;;
16892;SDS011;8563;52.242;9.098;2023-02-11T02:58:31;55.90;;;34.77;;
16892;SDS011;8563;52.242;9.098;2023-02-11T03:01:06;53.60;;;34.43;;
16892;SDS011;8563;52.242;9.098;2023-02-11T03:03:42;54.30;;;35.27;;
16892;SDS011;8563;52.242;9.098;2023-02-11T03:06:19;52.73;;;35.73;;
16892;SDS011;8563;52.242;9.098;2023-02-11T03:08:56;51.53;;;34.43;;
16892;SDS011;8563;52.242;9.098;2023-02-11T03:11:31;49.70;;;34.73;;
16892;SDS011;8563;52.242;9.098;2023-02-11T03:14:04;54.77;;;36.87;;
16892;SDS011;8563;52.242;9.098;2023-02-11T03:16:37;58.40;;;36.20;;
16892;SDS011;8563;52.242;9.098;2023-02-11T03:19:12;51.53;;;35.03;;
16892;SDS011;8563;52.242;9.098;2023-02-11T03:21:45;49.40;;;33.50;;
16892;SDS011;8563;52.242;9.098;2023-02-11T03:24:22;50.47;;;34.07;;
16892;SDS011;8563;52.242;9.098;2023-02-11T03:26:57;57.07;;;35.93;;
16892;SDS011;8563;52.242;9.098;2023-02-11T03:29:33;54.17;;;35.33;;
16892;SDS011;8563;52.242;9.098;2023-02-11T03:32:07;45.90;;;33.00;;
16892;SDS011;8563;52.242;9.098;2023-02-11T03:34:47;53.97;;;34.23;;
16892;SDS011;8563;52.242;9.098;2023-02-11T03:37:22;52.33;;;35.30;;
16892;SDS011;8563;52.242;9.098;2023-02-11T03:39:56;58.07;;;37.03;;
16892;SDS011;8563;52.242;9.098;2023-02-11T03:42:31;55.03;;;36.77;;
16892;SDS011;8563;52.242;9.098;2023-02-11T03:45:04;54.37;;;35.87;;
16892;SDS011;8563;52.242;9.098;2023-02-11T03:47:39;59.23;;;37.60;;
16892;SDS011;8563;52.242;9.098;2023-02-11T03:50:14;49.83;;;34.77;;
16892;SDS011;8563;52.242;9.098;2023-02-11T03:52:48;55.27;;;36.87;;
16892;SDS011;8563;52.242;9.098;2023-02-11T03:55:20;59.00;;;37.80;;
16892;SDS011;8563;52.242;9.098;2023-02-11T03:57:56;56.87;;;36.07;;
16892;SDS011;8563;52.242;9.098;2023-02-11T04:00:28;51.20;;;34.30;;
16892;SDS011;8563;52.242;9.098;2023-02-11T04:03:01;56.13;;;35.47;;
16892;SDS011;8563;52.242;9.098;2023-02-11T04:05:35;53.20;;;35.73;;
16892;SDS011;8563;52.242;9.098;2023-02-11T04:08:08;50.57;;;34.67;;
16892;SDS011;8563;52.242;9.098;2023-02-11T04:10:40;46.37;;;33.43;;
16892;SDS011;8563;52.242;9.098;2023-02-11T04:13:12;53.10;;;35.67;;
16892;SDS011;8563;52.242;9.098;2023-02-11T04:15:45;47.60;;;33.73;;
16892;SDS011;8563;52.242;9.098;2023-02-11T04:18:17;46.50;;;32.30;;
16892;SDS011;8563;52.242;9.098;2023-02-11T04:20:51;51.00;;;33.07;;
16892;SDS011;8563;52.242;9.098;2023-02-11T04:23:24;49.97;;;33.23;;
16892;SDS011;8563;52.242;9.098;2023-02-11T04:25:56;45.13;;;33.13;;
16892;SDS011;8563;52.242;9.098;2023-02-11T04:28:28;50.87;;;33.83;;
16892;SDS011;8563;52.242;9.098;2023-02-11T04:31:01;49.40;;;33.27;;
16892;SDS011;8563;52.242;9.098;2023-02-11T04:33:33;46.63;;;34.00;;
16892;SDS011;8563;52.242;9.098;2023-02-11T04:36:07;51.10;;;34.97;;
16892;SDS011;8563;52.242;9.098;2023-02-11T04:38:40;48.70;;;33.10;;
16892;SDS011;8563;52.242;9.098;2023-02-11T04:41:12;46.13;;;31.87;;
16892;SDS011;8563;52.242;9.098;2023-02-11T04:43:44;43.87;;;32.20;;
16892;SDS011;8563;52.242;9.098;2023-02-11T04:46:17;45.87;;;32.80;;
16892;SDS011;8563;52.242;9.098;2023-02-11T04:48:49;45.83;;;31.77;;
16892;SDS011;8563;52.242;9.098;2023-02-11T04:51:23;46.70;;;32.30;;
16892;SDS011;8563;52.242;9.098;2023-02-11T04:53:56;46.00;;;32.80;;
16892;SDS011;8563;52.242;9.098;2023-02-11T04:56:28;47.23;;;31.10;;
16892;SDS011;8563;52.242;9.098;2023-02-11T04:59:00;42.33;;;29.60;;
16892;SDS011;8563;52.242;9.098;2023-02-11T05:01:33;47.23;;;30.33;;
16892;SDS011;8563;52.242;9.098;2023-02-11T05:04:05;47.53;;;30.53;;
16892;SDS011;8563;52.242;9.098;2023-02-11T05:06:39;45.43;;;30.80;;
16892;SDS011;8563;52.242;9.098;2023-02-11T05:09:11;39.00;;;29.33;;
16892;SDS011;8563;52.242;9.098;2023-02-11T05:11:44;36.87;;;27.33;;
16892;SDS011;8563;52.242;9.098;2023-02-11T05:14:16;47.20;;;32.00;;
16892;SDS011;8563;52.242;9.098;2023-02-11T05:16:48;43.07;;;30.17;;
16892;SDS011;8563;52.242;9.098;2023-02-11T05:19:21;42.53;;;30.70;;
16892;SDS011;8563;52.242;9.098;2023-02-11T05:21:55;44.80;;;31.10;;
16892;SDS011;8563;52.242;9.098;2023-02-11T05:24:27;40.87;;;29.13;;
16892;SDS011;8563;52.242;9.098;2023-02-11T05:26:59;42.80;;;29.47;;
16892;SDS011;8563;52.242;9.098;2023-02-11T05:29:32;41.30;;;28.73;;
16892;SDS011;8563;52.242;9.098;2023-02-11T05:32:04;39.47;;;30.27;;
16892;SDS011;8563;52.242;9.098;2023-02-11T05:34:38;44.50;;;28.60;;
16892;SDS011;8563;52.242;9.098;2023-02-11T05:37:12;42.80;;;28.40;;
16892;SDS011;8563;52.242;9.098;2023-02-11T05:39:44;40.93;;;29.37;;
16892;SDS011;8563;52.242;9.098;2023-02-11T05:42:16;40.23;;;27.70;;
16892;SDS011;8563;52.242;9.098;2023-02-11T05:44:49;38.67;;;27.73;;
16892;SDS011;8563;52.242;9.098;2023-02-11T05:47:21;42.10;;;28.37;;
16892;SDS011;8563;52.242;9.098;2023-02-11T05:49:54;37.87;;;26.80;;
16892;SDS011;8563;52.242;9.098;2023-02-11T05:52:27;42.03;;;28.90;;
16892;SDS011;8563;52.242;9.098;2023-02-11T05:55:00;37.80;;;28.37;;
16892;SDS011;8563;52.242;9.098;2023-02-11T05:57:32;39.03;;;27.07;;
16892;SDS011;8563;52.242;9.098;2023-02-11T06:00:05;37.73;;;27.27;;
16892;SDS011;8563;52.242;9.098;2023-02-11T06:02:42;39.67;;;26.83;;
16892;SDS011;8563;52.242;9.098;2023-02-11T06:05:15;40.90;;;26.53;;
16892;SDS011;8563;52.242;9.098;2023-02-11T06:07:49;41.13;;;27.33;;
16892;SDS011;8563;52.242;9.098;2023-02-11T06:10:22;40.60;;;27.10;;
16892;SDS011;8563;52.242;9.098;2023-02-11T06:12:54;38.20;;;26.90;;
16892;SDS011;8563;52.242;9.098;2023-02-11T06:15:26;38.53;;;26.50;;
16892;SDS011;8563;52.242;9.098;2023-02-11T06:17:59;35.97;;;25.70;;
16892;SDS011;8563;52.242;9.098;2023-02-11T06:20:31;41.27;;;27.50;;
16892;SDS011;8563;52.242;9.098;2023-02-11T06:23:05;37.17;;;25.63;;
16892;SDS011;8563;52.242;9.098;2023-02-11T06:25:37;36.23;;;26.13;;
16892;SDS011;8563;52.242;9.098;2023-02-11T06:28:10;41.57;;;26.87;;
16892;SDS011;8563;52.242;9.098;2023-02-11T06:30:42;38.63;;;27.63;;
16892;SDS011;8563;52.242;9.098;2023-02-11T06:33:15;41.63;;;27.03;;
16892;SDS011;8563;52.242;9.098;2023-02-11T06:35:48;31.43;;;24.67;;
16892;SDS011;8563;52.242;9.098;2023-02-11T06:38:22;37.67;;;25.47;;
16892;SDS011;8563;52.242;9.098;2023-02-11T06:40:54;38.80;;;25.47;;
16892;SDS011;8563;52.242;9.098;2023-02-11T06:43:26;43.83;;;25.87;;
16892;SDS011;8563;52.242;9.098;2023-02-11T06:45:59;36.27;;;25.57;;
16892;SDS011;8563;52.242;9.098;2023-02-11T06:48:31;37.67;;;25.83;;
16892;SDS011;8563;52.242;9.098;2023-02-11T06:51:05;36.63;;;25.80;;
16892;SDS011;8563;52.242;9.098;2023-02-11T06:53:41;43.57;;;27.27;;
16892;SDS011;8563;52.242;9.098;2023-02-11T06:56:15;41.43;;;26.73;;
16892;SDS011;8563;52.242;9.098;2023-02-11T06:58:50;37.77;;;25.57;;
16892;SDS011;8563;52.242;9.098;2023-02-11T07:01:24;38.17;;;25.37;;
16892;SDS011;8563;52.242;9.098;2023-02-11T07:03:57;39.80;;;25.43;;
16892;SDS011;8563;52.242;9.098;2023-02-11T07:06:29;40.70;;;26.43;;
16892;SDS011;8563;52.242;9.098;2023-02-11T07:09:03;41.47;;;26.33;;
16892;SDS011;8563;52.242;9.098;2023-02-11T07:11:36;41.13;;;25.27;;
16892;SDS011;8563;52.242;9.098;2023-02-11T07:14:08;35.47;;;24.70;;
16892;SDS011;8563;52.242;9.098;2023-02-11T07:16:42;39.27;;;25.50;;
16892;SDS011;8563;52.242;9.098;2023-02-11T07:19:14;36.53;;;26.00;;
16892;SDS011;8563;52.242;9.098;2023-02-11T07:21:47;42.10;;;26.27;;
16892;SDS011;8563;52.242;9.098;2023-02-11T07:24:21;43.43;;;25.47;;
16892;SDS011;8563;52.242;9.098;2023-02-11T07:26:54;40.80;;;26.43;;
16892;SDS011;8563;52.242;9.098;2023-02-11T07:29:26;40.53;;;25.43;;
16892;SDS011;8563;52.242;9.098;2023-02-11T07:31:58;42.30;;;26.73;;
16892;SDS011;8563;52.242;9.098;2023-02-11T07:34:31;42.90;;;26.07;;
16892;SDS011;8563;52.242;9.098;2023-02-11T07:37:04;41.53;;;25.93;;
16892;SDS011;8563;52.242;9.098;2023-02-11T07:39:37;37.23;;;26.77;;
16892;SDS011;8563;52.242;9.098;2023-02-11T07:42:10;45.67;;;26.43;;
16892;SDS011;8563;52.242;9.098;2023-02-11T07:44:42;42.67;;;28.70;;
16892;SDS011;8563;52.242;9.098;2023-02-11T07:47:14;47.23;;;28.67;;
16892;SDS011;8563;52.242;9.098;2023-02-11T07:49:47;43.30;;;26.70;;
16892;SDS011;8563;52.242;9.098;2023-02-11T07:52:19;39.00;;;25.87;;
16892;SDS011;8563;52.242;9.098;2023-02-11T07:54:53;42.83;;;27.20;;
16892;SDS011;8563;52.242;9.098;2023-02-11T07:57:26;44.23;;;26.63;;
16892;SDS011;8563;52.242;9.098;2023-02-11T07:59:58;38.93;;;26.77;;
16892;SDS011;8563;52.242;9.098;2023-02-11T08:02:30;43.03;;;26.43;;
16892;SDS011;8563;52.242;9.098;2023-02-11T08:05:03;45.27;;;27.43;;
16892;SDS011;8563;52.242;9.098;2023-02-11T08:07:36;39.23;;;26.50;;
16892;SDS011;8563;52.242;9.098;2023-02-11T08:10:09;42.67;;;27.10;;
16892;SDS011;8563;52.242;9.098;2023-02-11T08:12:42;39.03;;;27.33;;
16892;SDS011;8563;52.242;9.098;2023-02-11T08:15:14;40.20;;;26.60;;
16892;SDS011;8563;52.242;9.098;2023-02-11T08:17:47;37.80;;;25.93;;
16892;SDS011;8563;52.242;9.098;2023-02-11T08:20:19;39.37;;;26.40;;
16892;SDS011;8563;52.242;9.098;2023-02-11T08:22:52;38.67;;;25.43;;
16892;SDS011;8563;52.242;9.098;2023-02-11T08:25:26;39.47;;;27.77;;
16892;SDS011;8563;52.242;9.098;2023-02-11T08:27:59;40.63;;;26.83;;
16892;SDS011;8563;52.242;9.098;2023-02-11T08:30:31;41.17;;;26.73;;
16892;SDS011;8563;52.242;9.098;2023-02-11T08:33:04;48.10;;;27.80;;
16892;SDS011;8563;52.242;9.098;2023-02-11T08:35:36;47.07;;;27.50;;
16892;SDS011;8563;52.242;9.098;2023-02-11T08:38:09;41.70;;;27.17;;
16892;SDS011;8563;52.242;9.098;2023-02-11T08:40:43;34.57;;;25.40;;
16892;SDS011;8563;52.242;9.098;2023-02-11T08:43:15;43.20;;;27.30;;
16892;SDS011;8563;52.242;9.098;2023-02-11T08:45:48;39.23;;;26.40;;
16892;SDS011;8563;52.242;9.098;2023-02-11T08:48:20;42.33;;;27.37;;
16892;SDS011;8563;52.242;9.098;2023-02-11T08:50:52;36.40;;;25.77;;
16892;SDS011;8563;52.242;9.098;2023-02-11T08:53:25;49.23;;;26.90;;
16892;SDS011;8563;52.242;9.098;2023-02-11T08:55:59;45.27;;;26.73;;
16892;SDS011;8563;52.242;9.098;2023-02-11T08:58:32;40.37;;;28.20;;
16892;SDS011;8563;52.242;9.098;2023-02-11T09:01:08;42.13;;;26.53;;
16892;SDS011;8563;52.242;9.098;2023-02-11T09:03:40;38.73;;;26.67;;
16892;SDS011;8563;52.242;9.098;2023-02-11T09:06:13;40.03;;;27.37;;
16892;SDS011;8563;52.242;9.098;2023-02-11T09:08:47;39.73;;;25.37;;
16892;SDS011;8563;52.242;9.098;2023-02-11T09:11:23;45.33;;;27.13;;
16892;SDS011;8563;52.242;9.098;2023-02-11T09:13:56;41.97;;;27.50;;
16892;SDS011;8563;52.242;9.098;2023-02-11T09:16:30;42.53;;;27.33;;
16892;SDS011;8563;52.242;9.098;2023-02-11T09:19:04;35.03;;;25.67;;
16892;SDS011;8563;52.242;9.098;2023-02-11T09:21:36;41.60;;;26.67;;
16892;SDS011;8563;52.242;9.098;2023-02-11T09:24:09;41.40;;;26.20;;
16892;SDS011;8563;52.242;9.098;2023-02-11T09:26:43;38.37;;;26.27;;
16892;SDS011;8563;52.242;9.098;2023-02-11T09:29:16;46.43;;;27.10;;
16892;SDS011;8563;52.242;9.098;2023-02-11T09:31:48;44.73;;;27.13;;
16892;SDS011;8563;52.242;9.098;2023-02-11T09:34:20;42.27;;;26.93;;
16892;SDS011;8563;52.242;9.098;2023-02-11T09:36:53;43.53;;;28.07;;
16892;SDS011;8563;52.242;9.098;2023-02-11T09:39:25;39.97;;;26.77;;
16892;SDS011;8563;52.242;9.098;2023-02-11T09:42:06;43.27;;;28.03;;
16892;SDS011;8563;52.242;9.098;2023-02-11T09:44:40;41.20;;;27.50;;
16892;SDS011;8563;52.242;9.098;2023-02-11T09:47:20;43.20;;;27.70;;
16892;SDS011;8563;52.242;9.098;2023-02-11T09:49:55;43.70;;;29.37;;
16892;SDS011;8563;52.242;9.098;2023-02-11T09:52:32;44.20;;;29.53;;
16892;SDS011;8563;52.242;9.098;2023-02-11T09:55:10;41.63;;;28.10;;
16892;SDS011;8563;52.242;9.098;2023-02-11T09:57:47;45.63;;;28.20;;
16892;SDS011;8563;52.242;9.098;2023-02-11T10:00:21;44.40;;;29.93;;
16892;SDS011;8563;52.242;9.098;2023-02-11T10:03:02;45.63;;;30.53;;
16892;SDS011;8563;52.242;9.098;2023-02-11T10:05:45;44.03;;;29.13;;
16892;SDS011;8563;52.242;9.098;2023-02-11T10:08:21;43.40;;;28.77;;
16892;SDS011;8563;52.242;9.098;2023-02-11T10:10:56;42.43;;;26.50;;
16892;SDS011;8563;52.242;9.098;2023-02-11T10:13:39;38.20;;;27.07;;
16892;SDS011;8563;52.242;9.098;2023-02-11T10:16:19;42.97;;;28.97;;
16892;SDS011;8563;52.242;9.098;2023-02-11T10:18:59;40.33;;;27.77;;
16892;SDS011;8563;52.242;9.098;2023-02-11T10:21:38;39.13;;;27.10;;
16892;SDS011;8563;52.242;9.098;2023-02-11T10:24:15;36.60;;;27.20;;
16892;SDS011;8563;52.242;9.098;2023-02-11T10:26:48;45.33;;;28.63;;
16892;SDS011;8563;52.242;9.098;2023-02-11T10:29:32;39.87;;;27.23;;
16892;SDS011;8563;52.242;9.098;2023-02-11T10:32:05;44.10;;;28.43;;
16892;SDS011;8563;52.242;9.098;2023-02-11T10:34:41;40.23;;;27.00;;
16892;SDS011;8563;52.242;9.098;2023-02-11T10:37:14;40.83;;;27.63;;
16892;SDS011;8563;52.242;9.098;2023-02-11T10:39:46;38.07;;;26.33;;
16892;SDS011;8563;52.242;9.098;2023-02-11T10:42:19;38.67;;;26.73;;
16892;SDS011;8563;52.242;9.098;2023-02-11T10:44:55;37.43;;;25.70;;
16892;SDS011;8563;52.242;9.098;2023-02-11T10:47:29;38.17;;;26.93;;
16892;SDS011;8563;52.242;9.098;2023-02-11T10:50:07;38.70;;;27.50;;
16892;SDS011;8563;52.242;9.098;2023-02-11T10:52:48;39.43;;;27.07;;
16892;SDS011;8563;52.242;9.098;2023-02-11T10:55:21;42.80;;;26.80;;
16892;SDS011;8563;52.242;9.098;2023-02-11T10:57:56;36.43;;;26.17;;
16892;SDS011;8563;52.242;9.098;2023-02-11T11:00:32;34.53;;;26.40;;
16892;SDS011;8563;52.242;9.098;2023-02-11T11:03:15;39.00;;;27.10;;
16892;SDS011;8563;52.242;9.098;2023-02-11T11:05:50;36.87;;;26.60;;
16892;SDS011;8563;52.242;9.098;2023-02-11T11:08:23;38.20;;;26.87;;
16892;SDS011;8563;52.242;9.098;2023-02-11T11:11:08;38.93;;;26.83;;
16892;SDS011;8563;52.242;9.098;2023-02-11T11:13:42;34.07;;;25.73;;
16892;SDS011;8563;52.242;9.098;2023-02-11T11:16:27;39.97;;;25.77;;
16892;SDS011;8563;52.242;9.098;2023-02-11T11:19:19;40.03;;;26.30;;
16892;SDS011;8563;52.242;9.098;2023-02-11T11:21:52;35.30;;;26.50;;
16892;SDS011;8563;52.242;9.098;2023-02-11T11:24:26;37.43;;;25.00;;
16892;SDS011;8563;52.242;9.098;2023-02-11T11:27:00;35.77;;;26.47;;
16892;SDS011;8563;52.242;9.098;2023-02-11T11:29:33;37.43;;;25.60;;
16892;SDS011;8563;52.242;9.098;2023-02-11T11:32:12;33.90;;;23.13;;
16892;SDS011;8563;52.242;9.098;2023-02-11T11:34:47;35.27;;;25.03;;
16892;SDS011;8563;52.242;9.098;2023-02-11T11:37:21;32.70;;;24.90;;
16892;SDS011;8563;52.242;9.098;2023-02-11T11:39:55;34.27;;;24.33;;
16892;SDS011;8563;52.242;9.098;2023-02-11T11:42:29;34.80;;;24.37;;
16892;SDS011;8563;52.242;9.098;2023-02-11T11:45:03;39.43;;;24.93;;
16892;SDS011;8563;52.242;9.098;2023-02-11T11:47:38;32.87;;;24.40;;
16892;SDS011;8563;52.242;9.098;2023-02-11T11:53:00;34.87;;;23.63;;
16892;SDS011;8563;52.242;9.098;2023-02-11T11:55:37;30.83;;;23.47;;
16892;SDS011;8563;52.242;9.098;2023-02-11T11:58:13;33.77;;;23.37;;
16892;SDS011;8563;52.242;9.098;2023-02-11T12:00:51;30.33;;;23.03;;
16892;SDS011;8563;52.242;9.098;2023-02-11T12:06:25;34.93;;;23.77;;
16892;SDS011;8563;52.242;9.098;2023-02-11T12:09:03;33.87;;;23.20;;
16892;SDS011;8563;52.242;9.098;2023-02-11T12:11:43;27.73;;;22.57;;
16892;SDS011;8563;52.242;9.098;2023-02-11T12:14:22;31.37;;;22.33;;
16892;SDS011;8563;52.242;9.098;2023-02-11T12:16:56;29.57;;;21.70;;
16892;SDS011;8563;52.242;9.098;2023-02-11T12:22:17;30.20;;;22.30;;
16892;SDS011;8563;52.242;9.098;2023-02-11T12:24:55;30.93;;;22.13;;
16892;SDS011;8563;52.242;9.098;2023-02-11T12:27:41;28.33;;;20.90;;
16892;SDS011;8563;52.242;9.098;2023-02-11T12:30:21;34.50;;;22.33;;
16892;SDS011;8563;52.242;9.098;2023-02-11T12:33:00;29.23;;;22.10;;
16892;SDS011;8563;52.242;9.098;2023-02-11T12:35:38;28.33;;;20.20;;
16892;SDS011;8563;52.242;9.098;2023-02-11T12:38:26;28.43;;;20.63;;
16892;SDS011;8563;52.242;9.098;2023-02-11T12:41:05;33.47;;;22.63;;
16892;SDS011;8563;52.242;9.098;2023-02-11T12:43:41;30.73;;;21.10;;
16892;SDS011;8563;52.242;9.098;2023-02-11T12:46:30;31.27;;;22.17;;
16892;SDS011;8563;52.242;9.098;2023-02-11T12:51:58;34.83;;;22.27;;
16892;SDS011;8563;52.242;9.098;2023-02-11T12:54:35;32.87;;;21.43;;
16892;SDS011;8563;52.242;9.098;2023-02-11T12:57:12;29.67;;;21.07;;
16892;SDS011;8563;52.242;9.098;2023-02-11T12:59:48;29.53;;;22.20;;
16892;SDS011;8563;52.242;9.098;2023-02-11T13:02:29;33.50;;;22.67;;
16892;SDS011;8563;52.242;9.098;2023-02-11T13:05:04;30.47;;;21.73;;
16892;SDS011;8563;52.242;9.098;2023-02-11T13:07:40;29.77;;;22.53;;
16892;SDS011;8563;52.242;9.098;2023-02-11T13:10:22;30.90;;;21.90;;
16892;SDS011;8563;52.242;9.098;2023-02-11T13:12:56;33.83;;;23.00;;
16892;SDS011;8563;52.242;9.098;2023-02-11T13:15:49;31.60;;;22.00;;
16892;SDS011;8563;52.242;9.098;2023-02-11T13:18:25;33.53;;;23.17;;
16892;SDS011;8563;52.242;9.098;2023-02-11T13:21:00;36.47;;;23.47;;
16892;SDS011;8563;52.242;9.098;2023-02-11T13:23:37;34.90;;;23.13;;
16892;SDS011;8563;52.242;9.098;2023-02-11T13:26:15;32.80;;;21.93;;
16892;SDS011;8563;52.242;9.098;2023-02-11T13:28:49;33.30;;;23.23;;
16892;SDS011;8563;52.242;9.098;2023-02-11T13:31:24;33.70;;;22.63;;
16892;SDS011;8563;52.242;9.098;2023-02-11T13:33:57;34.10;;;22.53;;
16892;SDS011;8563;52.242;9.098;2023-02-11T13:36:30;36.57;;;24.33;;
16892;SDS011;8563;52.242;9.098;2023-02-11T13:39:04;35.17;;;23.97;;
16892;SDS011;8563;52.242;9.098;2023-02-11T13:41:39;31.60;;;23.20;;
16892;SDS011;8563;52.242;9.098;2023-02-11T13:47:04;33.20;;;23.10;;
16892;SDS011;8563;52.242;9.098;2023-02-11T13:49:37;33.57;;;23.53;;
16892;SDS011;8563;52.242;9.098;2023-02-11T13:52:21;39.33;;;24.33;;
16892;SDS011;8563;52.242;9.098;2023-02-11T13:54:55;33.97;;;23.97;;
16892;SDS011;8563;52.242;9.098;2023-02-11T13:57:32;36.87;;;24.63;;
16892;SDS011;8563;52.242;9.098;2023-02-11T14:06:09;40.70;;;24.33;;
16892;SDS011;8563;52.242;9.098;2023-02-11T14:09:06;38.97;;;24.70;;
16892;SDS011;8563;52.242;9.098;2023-02-11T14:11:47;37.90;;;24.73;;
16892;SDS011;8563;52.242;9.098;2023-02-11T14:14:22;37.80;;;25.90;;
16892;SDS011;8563;52.242;9.098;2023-02-11T14:19:52;39.27;;;25.17;;
16892;SDS011;8563;52.242;9.098;2023-02-11T14:22:25;41.23;;;26.10;;
16892;SDS011;8563;52.242;9.098;2023-02-11T14:24:59;39.07;;;24.20;;
16892;SDS011;8563;52.242;9.098;2023-02-11T14:27:36;38.67;;;25.27;;
16892;SDS011;8563;52.242;9.098;2023-02-11T14:33:31;39.33;;;25.27;;
16892;SDS011;8563;52.242;9.098;2023-02-11T14:36:12;37.70;;;24.93;;
16892;SDS011;8563;52.242;9.098;2023-02-11T14:38:53;36.57;;;23.70;;
16892;SDS011;8563;52.242;9.098;2023-02-11T14:41:28;37.87;;;24.47;;
16892;SDS011;8563;52.242;9.098;2023-02-11T14:44:02;39.70;;;25.40;;
16892;SDS011;8563;52.242;9.098;2023-02-11T14:46:36;36.40;;;25.47;;
